Time;durP1;ratioP1;P1;durP2;ratioP2;P2;SDS_P1;SDS_P2;PMS_P1;PMS_P2;Temp;Humidity;BMP_temperature;BMP_pressure;BME280_temperature;BME280_humidity;BME280_pressure;Samples;Min_cycle;Max_cycle;Signal;HPM_P1;HPM_P2
2023/12/24 00:02:05;;;;;;;0.10;0.10;;;12.40;73.50;11.40;96066.00;;;;4975677;28;20229;-85
2023/12/24 00:04:44;;;;;;;0.10;0.10;;;12.40;73.50;11.40;96074.00;;;;4975027;28;20574;-86
2023/12/24 00:07:11;;;;;;;0.20;0.20;;;12.50;73.80;11.40;96084.00;;;;4982946;28;20238;-86
2023/12/24 00:09:38;;;;;;;0.27;0.20;;;12.40;74.20;11.40;96088.00;;;;4975300;28;20242;-86
2023/12/24 00:12:09;;;;;;;0.27;0.10;;;12.50;73.70;11.40;96098.00;;;;4975756;28;20227;-86
2023/12/24 00:14:38;;;;;;;0.10;0.10;;;12.50;73.50;11.40;96088.00;;;;4975537;28;20214;-86
2023/12/24 00:17:05;;;;;;;0.13;0.13;;;12.50;73.50;11.40;96094.00;;;;4975461;28;20234;-86
2023/12/24 00:19:32;;;;;;;0.10;0.10;;;12.50;73.70;11.40;96093.00;;;;4975542;28;20195;-86
2023/12/24 00:22:01;;;;;;;0.10;0.10;;;12.50;73.80;11.40;96107.00;;;;4978632;28;20230;-87
2023/12/24 00:24:28;;;;;;;0.10;0.10;;;12.50;73.60;11.40;96094.00;;;;4974586;28;20340;-86
2023/12/24 00:26:55;;;;;;;0.10;0.10;;;12.40;73.70;11.30;96100.00;;;;4983006;28;20246;-86
2023/12/24 00:29:22;;;;;;;0.10;0.10;;;12.50;73.70;11.30;96106.00;;;;4980646;28;20230;-86
2023/12/24 00:31:49;;;;;;;0.10;0.10;;;12.40;74.40;11.30;96109.00;;;;4965657;28;20878;-86
2023/12/24 00:34:16;;;;;;;0.10;0.10;;;12.40;73.70;11.30;96118.00;;;;4975738;28;20294;-86
2023/12/24 00:36:46;;;;;;;0.20;0.10;;;12.40;73.70;11.30;96110.00;;;;4978416;28;20664;-87
2023/12/24 00:39:15;;;;;;;0.10;0.10;;;12.40;73.50;11.30;96110.00;;;;4975852;28;20286;-85
2023/12/24 00:41:42;;;;;;;0.20;0.20;;;12.40;73.70;11.30;96116.00;;;;4984854;28;20214;-86
2023/12/24 00:44:09;;;;;;;0.20;0.20;;;12.40;73.70;11.30;96116.00;;;;4977049;28;20714;-86
2023/12/24 00:46:36;;;;;;;0.20;0.20;;;12.40;73.90;11.30;96105.00;;;;4991757;28;20258;-86
2023/12/24 00:49:06;;;;;;;0.10;0.10;;;12.40;73.80;11.30;96091.00;;;;4986607;28;20223;-86
2023/12/24 00:51:33;;;;;;;0.10;0.10;;;12.40;73.60;11.20;96090.00;;;;4984500;28;20227;-86
2023/12/24 00:54:01;;;;;;;0.10;0.10;;;12.40;73.70;11.30;96101.00;;;;4993294;28;20253;-86
2023/12/24 00:56:30;;;;;;;0.47;0.10;;;12.40;73.70;11.20;96095.00;;;;4975670;28;20246;-86
2023/12/24 00:58:56;;;;;;;0.00;0.00;;;12.40;73.80;11.20;96104.00;;;;4975157;28;20628;-86
2023/12/24 01:01:23;;;;;;;0.10;0.10;;;12.30;73.60;11.30;96089.00;;;;4980589;28;20195;-86
2023/12/24 01:03:50;;;;;;;0.27;0.10;;;12.40;73.70;11.30;96103.00;;;;4986545;28;20203;-86
2023/12/24 01:06:18;;;;;;;0.10;0.10;;;12.40;73.80;11.30;96102.00;;;;4989017;28;20247;-85
2023/12/24 01:08:45;;;;;;;0.30;0.30;;;12.40;73.80;11.30;96112.00;;;;4982209;28;20258;-87
2023/12/24 01:11:13;;;;;;;0.10;0.00;;;12.40;74.60;11.30;96121.00;;;;4981724;28;20230;-86
2023/12/24 01:13:41;;;;;;;0.40;0.40;;;12.40;73.70;11.30;96107.00;;;;4980994;28;20195;-86
2023/12/24 01:16:08;;;;;;;0.23;0.20;;;12.40;73.70;11.30;96107.00;;;;4974208;28;20302;-86
2023/12/24 01:18:36;;;;;;;0.17;0.13;;;12.40;73.90;11.30;96116.00;;;;4983161;28;20192;-86
2023/12/24 01:21:03;;;;;;;0.30;0.30;;;12.40;73.90;11.30;96111.00;;;;4980740;28;20277;-87
2023/12/24 01:23:30;;;;;;;0.20;0.10;;;12.40;73.80;11.30;96110.00;;;;4976456;28;20206;-86
2023/12/24 01:25:57;;;;;;;0.07;0.07;;;12.40;73.80;11.30;96099.00;;;;4980846;28;20258;-86
2023/12/24 01:28:24;;;;;;;0.00;0.00;;;12.40;73.60;11.30;96109.00;;;;4987682;28;20235;-87
2023/12/24 01:30:53;;;;;;;0.00;0.00;;;12.40;73.60;11.30;96107.00;;;;4973867;28;20188;-86
2023/12/24 01:33:21;;;;;;;0.30;0.10;;;12.40;73.60;11.30;96116.00;;;;4975656;28;20634;-86
2023/12/24 01:35:48;;;;;;;0.10;0.10;;;12.40;73.80;11.20;96112.00;;;;4983329;28;20216;-86
2023/12/24 01:38:15;;;;;;;0.10;0.10;;;12.40;73.60;11.20;96116.00;;;;4973227;28;20234;-86
2023/12/24 01:40:47;;;;;;;0.10;0.03;;;12.30;73.60;11.20;96110.00;;;;4980945;28;20209;-85
2023/12/24 01:43:14;;;;;;;0.10;0.10;;;12.30;73.50;11.20;96105.00;;;;4989341;28;20199;-86
2023/12/24 01:45:41;;;;;;;0.10;0.10;;;12.30;73.70;11.20;96100.00;;;;4986611;28;20246;-86
2023/12/24 01:48:12;;;;;;;0.10;0.10;;;12.30;73.50;11.20;96099.00;;;;4973448;28;20218;-85
2023/12/24 01:50:39;;;;;;;0.10;0.10;;;12.30;73.50;11.10;96098.00;;;;4967183;28;20210;-86
2023/12/24 01:53:07;;;;;;;0.10;0.10;;;12.30;73.60;11.10;96103.00;;;;4981784;28;20250;-85
2023/12/24 01:55:33;;;;;;;0.10;0.10;;;12.30;73.60;11.10;96099.00;;;;4979423;28;20230;-85
2023/12/24 01:58:01;;;;;;;0.10;0.10;;;12.30;73.50;11.10;96096.00;;;;4975562;28;20187;-85
2023/12/24 02:00:28;;;;;;;0.20;0.20;;;12.30;73.50;11.10;96096.00;;;;4973994;28;20195;-85
2023/12/24 02:02:57;;;;;;;0.20;0.10;;;12.20;73.50;11.10;96106.00;;;;4980801;28;20229;-86
2023/12/24 02:05:27;;;;;;;0.10;0.10;;;12.20;73.50;11.10;96093.00;;;;4965224;28;20223;-86
2023/12/24 02:07:57;;;;;;;0.73;0.00;;;12.20;73.20;11.10;96093.00;;;;4969082;28;20298;-86
2023/12/24 02:10:24;;;;;;;0.10;0.10;;;12.20;73.50;11.00;96091.00;;;;4971577;28;20696;-86
2023/12/24 02:12:52;;;;;;;0.07;0.07;;;12.20;73.40;11.00;96085.00;;;;4986325;28;20198;-86
2023/12/24 02:15:19;;;;;;;0.53;0.10;;;12.20;73.40;11.00;96100.00;;;;4974244;28;20211;-86
2023/12/24 02:17:47;;;;;;;0.47;0.00;;;12.20;73.50;11.00;96099.00;;;;4973503;28;20223;-86
2023/12/24 02:20:14;;;;;;;0.23;0.10;;;12.20;73.80;11.00;96096.00;;;;4972916;28;20231;-86
2023/12/24 02:22:42;;;;;;;0.10;0.10;;;12.20;73.80;11.00;96083.00;;;;4971645;28;20290;-87
2023/12/24 02:25:10;;;;;;;1.07;0.10;;;12.20;73.60;11.00;96087.00;;;;4971705;28;20239;-86
2023/12/24 02:27:46;;;;;;;0.23;0.20;;;12.20;73.80;11.00;96089.00;;;;4974776;28;20309;-86
2023/12/24 02:30:21;;;;;;;0.10;0.10;;;12.20;73.70;11.00;96086.00;;;;4978958;28;20211;-86
2023/12/24 02:32:58;;;;;;;0.10;0.10;;;12.20;73.60;11.00;96088.00;;;;4981759;28;20194;-86
2023/12/24 02:35:31;;;;;;;0.00;0.00;;;12.20;73.70;11.00;96066.00;;;;4978119;28;20249;-86
2023/12/24 02:38:00;;;;;;;0.30;0.00;;;12.20;73.60;11.00;96068.00;;;;4978582;28;20242;-86
2023/12/24 02:40:27;;;;;;;0.00;0.00;;;12.20;73.80;11.00;96075.00;;;;4978216;28;20231;-87
2023/12/24 02:42:54;;;;;;;0.00;0.00;;;12.20;73.80;11.00;96063.00;;;;4976804;28;20699;-86
2023/12/24 02:45:21;;;;;;;0.17;0.07;;;12.10;73.60;11.00;96080.00;;;;4978170;28;20235;-86
2023/12/24 02:47:48;;;;;;;0.20;0.10;;;12.10;73.60;11.00;96077.00;;;;4977943;28;20286;-86
2023/12/24 02:50:18;;;;;;;0.20;0.10;;;12.10;73.50;11.00;96073.00;;;;4977603;28;20199;-87
2023/12/24 02:52:46;;;;;;;0.10;0.10;;;12.10;73.60;11.00;96057.00;;;;4977528;28;20207;-87
2023/12/24 02:55:14;;;;;;;0.10;0.03;;;12.10;73.50;11.00;96074.00;;;;4977135;28;20207;-85
2023/12/24 02:57:41;;;;;;;0.27;0.10;;;12.10;73.40;11.00;96077.00;;;;4983998;28;20211;-86
2023/12/24 03:00:11;;;;;;;0.10;0.10;;;12.10;73.60;11.00;96066.00;;;;4977674;28;20192;-87
2023/12/24 03:02:38;;;;;;;0.93;0.03;;;12.10;73.70;11.00;96060.00;;;;4983362;28;20195;-86
2023/12/24 03:05:06;;;;;;;0.00;0.00;;;12.10;73.70;11.00;96063.00;;;;4980322;28;20219;-86
2023/12/24 03:07:33;;;;;;;0.10;0.10;;;12.10;73.50;11.00;96055.00;;;;4977753;28;20694;-86
2023/12/24 03:10:00;;;;;;;0.00;0.00;;;12.10;73.60;11.00;96062.00;;;;4977098;28;20242;-87
2023/12/24 03:12:28;;;;;;;0.10;0.10;;;12.10;73.40;11.00;96077.00;;;;4977467;28;20282;-86
2023/12/24 03:14:55;;;;;;;0.33;0.20;;;12.20;73.20;11.00;96063.00;;;;4977112;28;20315;-86
2023/12/24 03:17:23;;;;;;;0.10;0.00;;;12.20;73.40;11.00;96066.00;;;;4983427;28;20203;-85
2023/12/24 03:19:50;;;;;;;0.10;0.10;;;12.20;73.00;11.00;96054.00;;;;4976267;28;20238;-86
2023/12/24 03:22:17;;;;;;;0.23;0.03;;;12.20;73.10;11.10;96063.00;;;;4956243;29;20254;-86
2023/12/24 03:24:44;;;;;;;0.00;0.00;;;12.20;73.10;11.10;96055.00;;;;4962758;28;20228;-86
2023/12/24 03:27:11;;;;;;;0.00;0.00;;;12.20;73.20;11.10;96056.00;;;;4975845;28;20856;-85
2023/12/24 03:29:40;;;;;;;0.00;0.00;;;12.20;73.20;11.10;96052.00;;;;4976123;28;20289;-86
2023/12/24 03:32:09;;;;;;;0.13;0.10;;;12.20;72.80;11.10;96054.00;;;;4977120;28;20234;-86
2023/12/24 03:34:36;;;;;;;0.10;0.10;;;12.20;72.80;11.10;96071.00;;;;4976770;28;20231;-86
2023/12/24 03:37:06;;;;;;;0.00;0.00;;;12.20;72.90;11.10;96062.00;;;;4976968;28;20578;-86
2023/12/24 03:39:33;;;;;;;0.43;0.10;;;12.20;73.00;11.10;96077.00;;;;4976546;28;20621;-86
2023/12/24 03:42:00;;;;;;;0.10;0.10;;;12.20;73.20;11.10;96052.00;;;;4977737;28;20219;-87
2023/12/24 03:44:28;;;;;;;0.20;0.00;;;12.20;73.00;11.10;96095.00;;;;4977174;28;20188;-86
2023/12/24 03:46:56;;;;;;;0.17;0.17;;;12.20;72.60;11.10;96090.00;;;;4992524;28;20209;-86
2023/12/24 03:49:24;;;;;;;0.10;0.10;;;12.20;72.50;11.10;96092.00;;;;4992017;28;20212;-86
2023/12/24 03:51:51;;;;;;;0.00;0.00;;;12.30;72.90;11.10;96093.00;;;;4976966;28;20218;-86
2023/12/24 03:54:21;;;;;;;0.40;0.10;;;12.20;72.70;11.10;96094.00;;;;4976076;28;20242;-86
2023/12/24 03:56:48;;;;;;;0.13;0.13;;;12.20;72.60;11.10;96081.00;;;;4976328;28;20306;-86
2023/12/24 03:59:16;;;;;;;0.40;0.10;;;12.20;72.60;11.10;96091.00;;;;4994878;28;20298;-85
2023/12/24 04:01:48;;;;;;;0.10;0.10;;;12.20;72.60;11.10;96077.00;;;;4981222;28;20282;-86
2023/12/24 04:04:17;;;;;;;0.93;0.10;;;12.30;72.30;11.20;96087.00;;;;4976187;28;20627;-86
2023/12/24 04:06:47;;;;;;;0.00;0.00;;;12.30;72.40;11.20;96082.00;;;;4976515;28;20223;-86
2023/12/24 04:09:14;;;;;;;0.53;0.20;;;12.30;72.20;11.10;96098.00;;;;4976635;28;20646;-85
2023/12/24 04:11:42;;;;;;;0.00;0.00;;;12.30;72.50;11.20;96100.00;;;;4975595;28;20203;-86
2023/12/24 04:14:11;;;;;;;0.10;0.10;;;12.30;73.40;11.20;96086.00;;;;4974776;28;20256;-86
2023/12/24 04:16:39;;;;;;;0.10;0.10;;;12.30;72.30;11.20;96117.00;;;;4975007;28;20250;-86
2023/12/24 04:19:07;;;;;;;0.03;0.00;;;12.30;72.50;11.20;96116.00;;;;4974802;28;20254;-87
2023/12/24 04:21:35;;;;;;;0.73;0.00;;;12.30;72.40;11.20;96114.00;;;;4974298;28;20211;-86
2023/12/24 04:24:02;;;;;;;0.50;0.10;;;12.40;72.30;11.20;96096.00;;;;4955179;29;20298;-86
2023/12/24 04:26:31;;;;;;;0.30;0.30;;;12.40;72.30;11.30;96103.00;;;;4954893;29;20247;-86
2023/12/24 04:28:58;;;;;;;0.10;0.10;;;12.40;72.30;11.20;96104.00;;;;4956676;29;20274;-86
2023/12/24 04:31:25;;;;;;;0.00;0.00;;;12.40;72.30;11.20;96095.00;;;;4956650;29;20611;-87
2023/12/24 04:33:53;;;;;;;0.20;0.10;;;12.40;72.10;11.30;96112.00;;;;4957041;29;20302;-86
2023/12/24 04:36:20;;;;;;;0.00;0.00;;;12.40;72.30;11.30;96107.00;;;;4955985;29;20299;-85
2023/12/24 04:38:49;;;;;;;0.20;0.00;;;12.40;72.10;11.30;96107.00;;;;4966095;28;20294;-86
2023/12/24 04:41:17;;;;;;;0.10;0.10;;;12.40;71.90;11.30;96112.00;;;;4975933;28;20319;-86
2023/12/24 04:43:45;;;;;;;0.00;0.00;;;12.40;72.10;11.30;96115.00;;;;4975802;28;20196;-86
2023/12/24 04:46:12;;;;;;;0.10;0.10;;;12.40;72.80;11.30;96112.00;;;;4976303;28;20223;-86
2023/12/24 04:48:39;;;;;;;0.17;0.10;;;12.40;71.90;11.30;96127.00;;;;4975359;28;20242;-86
2023/12/24 04:51:07;;;;;;;0.40;0.10;;;12.50;72.60;11.30;96111.00;;;;4975227;28;20227;-85
2023/12/24 04:53:39;;;;;;;0.00;0.00;;;12.50;71.80;11.30;96116.00;;;;4975518;28;20203;-86
2023/12/24 04:56:08;;;;;;;0.10;0.10;;;12.50;71.70;11.30;96105.00;;;;4974937;28;20251;-87
2023/12/24 04:58:34;;;;;;;0.13;0.10;;;12.50;71.70;11.40;96104.00;;;;4974994;28;20188;-86
2023/12/24 05:01:05;;;;;;;0.00;0.00;;;12.50;71.90;11.40;96096.00;;;;4975287;28;20251;-86
2023/12/24 05:03:32;;;;;;;0.10;0.10;;;12.50;71.70;11.40;96099.00;;;;4975520;28;20640;-86
2023/12/24 05:05:59;;;;;;;0.73;0.20;;;12.60;71.70;11.40;96075.00;;;;4974370;28;20757;-86
2023/12/24 05:08:26;;;;;;;0.10;0.10;;;12.60;71.90;11.40;96078.00;;;;4974473;28;20224;-87
2023/12/24 05:10:54;;;;;;;0.10;0.10;;;12.60;71.70;11.40;96110.00;;;;4980473;28;20203;-86
2023/12/24 05:13:22;;;;;;;0.10;0.10;;;12.60;71.70;11.40;96089.00;;;;4973215;28;20216;-86
2023/12/24 05:15:49;;;;;;;0.30;0.30;;;12.60;71.50;11.40;96093.00;;;;4973152;28;20788;-86
2023/12/24 05:18:19;;;;;;;0.50;0.20;;;12.60;71.50;11.40;96070.00;;;;4973062;28;20250;-85
2023/12/24 05:20:46;;;;;;;0.20;0.10;;;12.60;71.50;11.40;96078.00;;;;4973731;28;20242;-86
2023/12/24 05:23:13;;;;;;;0.30;0.30;;;12.60;71.40;11.40;96068.00;;;;4975082;28;20293;-86
2023/12/24 05:25:40;;;;;;;0.10;0.10;;;12.60;71.50;11.40;96068.00;;;;4974073;28;20235;-87
2023/12/24 05:28:07;;;;;;;0.33;0.23;;;12.60;71.20;11.40;96072.00;;;;4974427;28;20263;-87
2023/12/24 05:30:36;;;;;;;0.40;0.10;;;12.60;71.40;11.40;96068.00;;;;4974921;28;20204;-86
2023/12/24 05:33:04;;;;;;;0.20;0.10;;;12.60;71.80;11.40;96062.00;;;;4974646;28;20245;-87
2023/12/24 05:35:32;;;;;;;0.13;0.13;;;12.60;71.20;11.40;96078.00;;;;4974747;28;20219;-87
2023/12/24 05:37:59;;;;;;;0.30;0.20;;;12.60;71.10;11.40;96064.00;;;;4974724;28;20258;-86
2023/12/24 05:40:26;;;;;;;0.10;0.10;;;12.60;71.10;11.40;96063.00;;;;4974308;28;20226;-86
2023/12/24 05:42:54;;;;;;;0.20;0.10;;;12.60;71.10;11.40;96068.00;;;;4973886;28;20233;-86
2023/12/24 05:45:21;;;;;;;1.43;0.23;;;12.60;71.10;11.40;96062.00;;;;4973885;28;20230;-86
2023/12/24 05:47:50;;;;;;;0.30;0.10;;;12.60;71.30;11.40;96053.00;;;;4966606;28;20223;-86
2023/12/24 05:50:17;;;;;;;0.10;0.00;;;12.60;70.80;11.40;96055.00;;;;4972075;28;20203;-86
2023/12/24 05:52:45;;;;;;;0.10;0.10;;;12.60;70.90;11.40;96075.00;;;;4973804;28;20203;-87
2023/12/24 05:55:12;;;;;;;0.10;0.10;;;12.60;71.60;11.40;96073.00;;;;4975861;28;20641;-86
2023/12/24 05:57:39;;;;;;;0.10;0.10;;;12.60;71.00;11.30;96044.00;;;;4986974;28;20294;-86
2023/12/24 06:00:09;;;;;;;0.20;0.20;;;12.60;70.90;11.30;96050.00;;;;4974588;28;20291;-87
2023/12/24 06:02:36;;;;;;;0.10;0.10;;;12.60;70.90;11.30;96053.00;;;;4977403;28;20196;-86
2023/12/24 06:05:05;;;;;;;0.10;0.10;;;12.50;70.80;11.30;96048.00;;;;4973155;28;20223;-86
2023/12/24 06:07:32;;;;;;;0.10;0.10;;;12.50;70.80;11.30;96052.00;;;;4986109;28;20231;-86
2023/12/24 06:10:00;;;;;;;0.10;0.10;;;12.60;70.90;11.30;96046.00;;;;4972052;28;20317;-86
2023/12/24 06:12:27;;;;;;;0.10;0.10;;;12.50;70.80;11.30;96065.00;;;;4972122;28;20671;-86
2023/12/24 06:14:54;;;;;;;0.20;0.20;;;12.50;70.80;11.30;96057.00;;;;4971799;28;20242;-86
2023/12/24 06:17:21;;;;;;;0.10;0.10;;;12.50;70.70;11.30;96054.00;;;;4983472;28;20210;-87
2023/12/24 06:19:48;;;;;;;0.20;0.20;;;12.50;70.80;11.30;96039.00;;;;4985124;28;20615;-86
2023/12/24 06:22:17;;;;;;;0.20;0.20;;;12.50;71.00;11.30;96049.00;;;;4973512;28;20199;-86
2023/12/24 06:24:44;;;;;;;0.30;0.27;;;12.50;70.80;11.30;96049.00;;;;4979673;28;20226;-86
2023/12/24 06:27:11;;;;;;;0.13;0.13;;;12.50;71.10;11.30;96037.00;;;;4983686;28;20682;-86
2023/12/24 06:29:38;;;;;;;0.10;0.10;;;12.50;70.80;11.30;96047.00;;;;4991837;28;20309;-86
2023/12/24 06:32:06;;;;;;;0.20;0.20;;;12.50;70.80;11.30;96030.00;;;;4988348;28;20238;-86
2023/12/24 06:34:33;;;;;;;0.30;0.30;;;12.50;71.00;11.30;96031.00;;;;4975732;28;20286;-86
2023/12/24 06:37:00;;;;;;;1.23;1.13;;;12.50;71.00;11.40;96022.00;;;;4957257;28;20246;-86
2023/12/24 06:39:29;;;;;;;1.70;1.23;;;12.60;71.10;11.40;96011.00;;;;4973356;28;20278;-86
2023/12/24 06:41:56;;;;;;;0.60;0.60;;;12.60;71.10;11.40;96019.00;;;;4973300;28;20282;-86
2023/12/24 06:44:23;;;;;;;0.30;0.30;;;12.60;71.10;11.40;96014.00;;;;4954507;29;20637;-87
2023/12/24 06:46:51;;;;;;;0.37;0.37;;;12.60;70.90;11.40;96016.00;;;;4954270;29;20235;-86
2023/12/24 06:49:18;;;;;;;0.30;0.30;;;12.50;71.60;11.40;96019.00;;;;4966990;28;21179;-86
2023/12/24 06:51:45;;;;;;;0.10;0.10;;;12.60;71.00;11.40;96004.00;;;;4987950;28;20219;-86
2023/12/24 06:54:13;;;;;;;0.50;0.50;;;12.60;70.70;11.40;96019.00;;;;4971581;28;20239;-86
2023/12/24 06:56:41;;;;;;;0.20;0.20;;;12.60;71.70;11.50;96036.00;;;;4984670;28;20280;-84
2023/12/24 06:59:08;;;;;;;0.13;0.10;;;12.60;71.40;11.50;96022.00;;;;4989409;28;20222;-84
2023/12/24 07:01:36;;;;;;;0.13;0.10;;;12.60;70.90;11.50;96016.00;;;;4984357;28;20202;-85
2023/12/24 07:04:03;;;;;;;0.30;0.17;;;12.70;71.10;11.50;96014.00;;;;4970354;28;20230;-85
2023/12/24 07:06:30;;;;;;;0.30;0.20;;;12.70;71.10;11.60;96009.00;;;;4969913;28;20655;-85
2023/12/24 07:08:57;;;;;;;0.30;0.30;;;12.70;70.80;11.60;96011.00;;;;4968446;28;20314;-85
2023/12/24 07:11:24;;;;;;;1.07;0.57;;;12.70;70.80;11.60;96000.00;;;;4974094;28;20231;-85
2023/12/24 07:13:53;;;;;;;0.20;0.20;;;12.80;71.00;11.60;96002.00;;;;4977963;28;20287;-85
2023/12/24 07:16:20;;;;;;;0.17;0.17;;;12.80;70.70;11.60;96014.00;;;;4982750;28;20305;-85
2023/12/24 07:18:47;;;;;;;0.10;0.10;;;12.80;70.70;11.60;96016.00;;;;4977654;28;20254;-85
2023/12/24 07:21:14;;;;;;;0.20;0.20;;;12.80;70.70;11.60;96024.00;;;;4982595;28;20295;-85
2023/12/24 07:23:42;;;;;;;0.30;0.30;;;12.80;70.80;11.60;96030.00;;;;4974567;28;20278;-85
2023/12/24 07:26:09;;;;;;;0.10;0.10;;;12.90;70.80;11.60;96042.00;;;;4980064;28;20603;-86
2023/12/24 07:28:36;;;;;;;0.20;0.20;;;12.80;70.50;11.60;96024.00;;;;4988696;28;20195;-86
2023/12/24 07:31:05;;;;;;;0.50;0.30;;;12.80;70.50;11.70;96029.00;;;;4975572;28;20223;-86
2023/12/24 07:33:38;;;;;;;0.20;0.20;;;12.80;70.30;11.70;96014.00;;;;4976499;28;20223;-86
2023/12/24 07:36:09;;;;;;;0.20;0.20;;;12.80;70.20;11.70;96033.00;;;;4987469;28;20250;-86
2023/12/24 07:38:36;;;;;;;0.20;0.20;;;12.90;70.60;11.70;96025.00;;;;4984014;28;20234;-87
2023/12/24 07:41:04;;;;;;;0.10;0.10;;;12.90;70.60;11.70;96020.00;;;;4985909;28;20194;-87
2023/12/24 07:43:31;;;;;;;0.20;0.20;;;12.90;70.50;11.70;96046.00;;;;4990901;28;20230;-88
2023/12/24 07:45:58;;;;;;;0.40;0.40;;;12.90;70.50;11.70;96031.00;;;;4976415;28;20667;-87
2023/12/24 07:48:27;;;;;;;0.47;0.30;;;12.90;70.50;11.70;96028.00;;;;4976042;28;20231;-87
2023/12/24 07:50:54;;;;;;;0.40;0.40;;;12.90;70.30;11.70;96035.00;;;;4977378;28;20210;-87
2023/12/24 07:53:21;;;;;;;0.20;0.20;;;12.90;70.50;11.70;96028.00;;;;4986788;28;20231;-87
2023/12/24 07:55:48;;;;;;;0.40;0.40;;;12.90;70.50;11.70;96018.00;;;;4975254;28;20222;-87
2023/12/24 07:58:15;;;;;;;0.40;0.40;;;12.90;70.70;11.70;96018.00;;;;4977826;28;20741;-87
2023/12/24 08:00:42;;;;;;;0.30;0.30;;;12.90;70.80;11.70;96035.00;;;;4980441;28;20214;-87
2023/12/24 08:03:10;;;;;;;0.33;0.33;;;12.90;70.80;11.70;96045.00;;;;4994824;28;20500;-87
2023/12/24 08:05:38;;;;;;;0.20;0.20;;;12.90;70.90;11.70;96038.00;;;;4997663;28;20250;-87
2023/12/24 08:08:06;;;;;;;0.63;0.43;;;12.90;70.90;11.70;96030.00;;;;4980715;28;20667;-87
2023/12/24 08:10:33;;;;;;;1.17;0.30;;;12.90;71.10;11.70;96036.00;;;;4984704;28;20247;-87
2023/12/24 08:13:00;;;;;;;0.20;0.10;;;13.00;71.10;11.70;96027.00;;;;4976462;28;20299;-87
2023/12/24 08:15:27;;;;;;;0.10;0.10;;;12.90;71.10;11.70;96031.00;;;;4989113;28;20230;-88
2023/12/24 08:17:55;;;;;;;0.30;0.30;;;12.90;71.00;11.70;96021.00;;;;4980931;28;20639;-88
2023/12/24 08:20:24;;;;;;;0.20;0.20;;;12.90;71.10;11.70;96027.00;;;;4976256;28;20238;-87
2023/12/24 08:22:52;;;;;;;1.47;1.13;;;12.90;71.10;11.70;96021.00;;;;4974697;28;20219;-86
2023/12/24 08:25:20;;;;;;;4.63;1.10;;;12.90;71.20;11.70;96008.00;;;;4993556;28;20258;-86
2023/12/24 08:27:47;;;;;;;0.50;0.50;;;12.90;71.40;11.70;96014.00;;;;4993708;28;20195;-87
2023/12/24 08:30:15;;;;;;;0.30;0.20;;;12.90;71.50;11.70;96046.00;;;;4983862;28;20312;-86
2023/12/24 08:32:42;;;;;;;0.37;0.20;;;12.90;71.60;11.70;96026.00;;;;4986988;28;20229;-87
2023/12/24 08:35:11;;;;;;;0.40;0.40;;;12.90;71.70;11.60;96027.00;;;;4978776;28;20283;-87
2023/12/24 08:37:38;;;;;;;0.30;0.30;;;12.90;71.80;11.60;96012.00;;;;4986000;28;20219;-87
2023/12/24 08:40:09;;;;;;;0.50;0.50;;;12.80;72.10;11.50;96021.00;;;;4985332;28;20210;-87
2023/12/24 08:42:36;;;;;;;0.50;0.50;;;12.80;72.30;11.50;96008.00;;;;4991420;28;20727;-87
2023/12/24 08:45:04;;;;;;;0.47;0.47;;;12.70;72.60;11.40;96023.00;;;;4985378;28;20225;-89
2023/12/24 08:47:31;;;;;;;0.40;0.30;;;12.70;72.60;11.40;96019.00;;;;4976177;28;20290;-87
2023/12/24 08:49:58;;;;;;;0.50;0.50;;;12.70;72.70;11.40;96010.00;;;;4973837;28;20261;-88
2023/12/24 08:52:25;;;;;;;0.20;0.20;;;12.60;72.50;11.30;96007.00;;;;4983488;28;20195;-87
2023/12/24 08:54:53;;;;;;;0.30;0.30;;;12.60;72.70;11.30;95989.00;;;;4974327;28;20219;-86
2023/12/24 08:57:21;;;;;;;0.30;0.30;;;12.60;72.60;11.30;96001.00;;;;4971571;28;20235;-86
2023/12/24 08:59:48;;;;;;;0.20;0.10;;;12.60;72.30;11.30;96000.00;;;;4970922;28;20282;-86
2023/12/24 09:02:15;;;;;;;0.20;0.20;;;12.50;72.30;11.30;95987.00;;;;4982101;28;20219;-86
2023/12/24 09:04:46;;;;;;;0.20;0.20;;;12.50;72.40;11.30;95997.00;;;;4980294;28;20230;-86
2023/12/24 09:07:13;;;;;;;0.30;0.30;;;12.50;72.20;11.30;95985.00;;;;4989622;28;20204;-85
2023/12/24 09:09:40;;;;;;;1.63;1.47;;;12.50;72.20;11.30;95987.00;;;;4992923;28;20309;-85
2023/12/24 09:12:08;;;;;;;0.30;0.30;;;12.50;72.30;11.30;95983.00;;;;4991977;28;20314;-85
2023/12/24 09:14:37;;;;;;;0.40;0.30;;;12.50;72.50;11.40;96000.00;;;;4981655;28;20312;-86
2023/12/24 09:17:04;;;;;;;0.70;0.70;;;12.50;72.50;11.40;96008.00;;;;4977513;28;20233;-86
2023/12/24 09:19:31;;;;;;;0.30;0.30;;;12.60;72.70;11.40;96015.00;;;;4981386;28;20192;-86
2023/12/24 09:21:58;;;;;;;0.30;0.30;;;12.60;72.70;11.50;96019.00;;;;4989268;28;20218;-86
2023/12/24 09:24:26;;;;;;;0.30;0.30;;;12.60;72.60;11.50;96019.00;;;;4979117;28;20282;-86
2023/12/24 09:26:53;;;;;;;0.30;0.30;;;12.70;72.60;11.60;96019.00;;;;4993359;28;20249;-85
2023/12/24 09:29:22;;;;;;;0.53;0.30;;;12.70;72.50;11.60;96037.00;;;;4976695;28;20250;-84
2023/12/24 09:31:51;;;;;;;0.33;0.30;;;12.70;72.40;11.60;96027.00;;;;4993613;28;20222;-85
2023/12/24 09:34:18;;;;;;;0.20;0.20;;;12.80;72.30;11.70;96030.00;;;;4989560;28;20231;-86
2023/12/24 09:36:45;;;;;;;0.30;0.30;;;12.80;72.30;11.70;96035.00;;;;4988137;28;20247;-87
2023/12/24 09:39:12;;;;;;;0.30;0.30;;;12.90;72.20;11.70;96033.00;;;;4985341;28;20213;-87
2023/12/24 09:41:39;;;;;;;1.27;1.13;;;12.90;72.10;11.80;96029.00;;;;4979545;28;20897;-87
2023/12/24 09:44:09;;;;;;;0.90;0.90;;;12.90;71.90;11.80;96030.00;;;;4976194;28;20191;-87
2023/12/24 09:46:36;;;;;;;0.50;0.43;;;13.00;72.00;11.90;96026.00;;;;4981483;28;20222;-88
2023/12/24 09:49:29;;;;;;;0.73;0.30;;;13.00;72.00;12.00;96024.00;;;;4979127;28;20724;-88
2023/12/24 09:51:58;;;;;;;0.50;0.40;;;13.10;70.80;12.00;96011.00;;;;4974808;28;20199;-89
2023/12/24 09:54:27;;;;;;;0.53;0.53;;;13.10;71.70;12.10;96011.00;;;;4975613;28;20207;-89
2023/12/24 09:56:56;;;;;;;0.30;0.30;;;13.20;71.80;12.10;96008.00;;;;4979411;28;20270;-89
2023/12/24 09:59:25;;;;;;;0.30;0.30;;;13.20;71.80;12.20;95997.00;;;;4978730;28;20266;-86
2023/12/24 10:01:54;;;;;;;0.40;0.40;;;13.30;71.70;12.20;95987.00;;;;4989905;28;20573;-86
2023/12/24 10:04:25;;;;;;;0.40;0.40;;;13.30;71.50;12.20;95993.00;;;;4981054;28;20242;-87
2023/12/24 10:06:55;;;;;;;0.83;0.30;;;13.30;71.40;12.30;95981.00;;;;4980741;28;20585;-89
2023/12/24 10:09:25;;;;;;;0.27;0.27;;;13.40;71.70;12.30;95957.00;;;;4977771;28;20415;-88
2023/12/24 10:12:08;;;;;;;0.20;0.20;;;13.40;71.50;12.30;95974.00;;;;4992824;28;20214;-86
2023/12/24 10:14:37;;;;;;;0.47;0.37;;;13.50;70.90;12.40;95980.00;;;;4979482;28;20741;-87
2023/12/24 10:17:10;;;;;;;0.47;0.37;;;13.50;71.80;12.40;95976.00;;;;4983116;28;20195;-86
2023/12/24 10:19:38;;;;;;;0.30;0.30;;;13.50;71.60;12.50;95982.00;;;;4983712;28;20202;-86
2023/12/24 10:22:08;;;;;;;0.23;0.23;;;13.50;71.50;12.50;95978.00;;;;4984853;28;20198;-88
2023/12/24 10:24:38;;;;;;;0.27;0.20;;;13.60;71.50;12.50;95981.00;;;;4979887;28;20235;-88
2023/12/24 10:27:08;;;;;;;0.33;0.33;;;13.60;71.60;12.60;95972.00;;;;4986478;28;20200;-88
2023/12/24 10:29:38;;;;;;;0.57;0.50;;;13.60;71.60;12.60;95967.00;;;;4979180;28;20198;-87
2023/12/24 10:32:09;;;;;;;0.23;0.23;;;13.70;71.40;12.60;95985.00;;;;4979116;28;20203;-87
2023/12/24 10:34:40;;;;;;;0.73;0.27;;;13.70;71.40;12.70;95975.00;;;;4991992;28;20235;-88
2023/12/24 10:37:18;;;;;;;0.30;0.30;;;13.80;71.40;12.70;95966.00;;;;4981305;28;20230;-87
2023/12/24 10:39:46;;;;;;;0.33;0.30;;;13.80;70.60;12.80;95982.00;;;;4981294;28;20195;-86
2023/12/24 10:42:14;;;;;;;0.40;0.40;;;13.80;71.30;12.80;95966.00;;;;4972753;28;20199;-87
2023/12/24 10:44:43;;;;;;;0.30;0.30;;;13.90;71.10;12.90;95964.00;;;;4982016;28;20246;-86
2023/12/24 10:47:10;;;;;;;0.43;0.33;;;13.90;71.10;12.90;95975.00;;;;4976015;28;20192;-89
2023/12/24 10:49:39;;;;;;;0.50;0.50;;;13.90;70.90;12.90;95973.00;;;;4981615;28;20210;-88
2023/12/24 10:52:06;;;;;;;1.13;0.30;;;14.00;70.90;13.00;95963.00;;;;4990062;28;20204;-86
2023/12/24 10:54:36;;;;;;;0.50;0.30;;;14.00;71.10;13.00;95971.00;;;;4986984;28;20226;-89
2023/12/24 10:57:23;;;;;;;0.57;0.50;;;14.10;71.00;13.20;95949.00;;;;4983839;28;20521;-86
2023/12/24 11:00:11;;;;;;;0.40;0.40;;;13.90;68.20;13.20;95958.00;;;;4977078;28;20217;-87